Time;durP1;ratioP1;P1;durP2;ratioP2;P2;SDS_P1;SDS_P2;PMS_P1;PMS_P2;Temp;Humidity;BMP_temperature;BMP_pressure;BME280_temperature;BME280_humidity;BME280_pressure;Samples;Min_cycle;Max_cycle;Signal;HPM_P1;HPM_P2
2022/02/16 00:00:24;;;;;;;;;;;13.70;55.20;;;;;;5163803;27;19922;-70
2022/02/16 00:02:49;;;;;;;;;;;13.70;55.20;;;;;;5163833;27;19918;-69
2022/02/16 00:05:16;;;;;;;;;;;13.70;55.20;;;;;;5163784;27;19918;-69
2022/02/16 00:07:42;;;;;;;;;;;13.70;55.30;;;;;;5163632;27;19947;-69
2022/02/16 00:10:09;;;;;;;;;;;13.70;55.30;;;;;;5163549;27;19923;-69
2022/02/16 00:12:34;;;;;;;;;;;13.70;55.20;;;;;;5163636;27;20149;-70
2022/02/16 00:15:00;;;;;;;;;;;13.70;55.30;;;;;;5163636;27;19974;-71
2022/02/16 00:17:26;;;;;;;;;;;13.70;55.30;;;;;;5163503;27;19911;-69
2022/02/16 00:19:51;;;;;;;;;;;13.70;55.20;;;;;;5163516;27;19954;-70
2022/02/16 00:22:17;;;;;;;;;;;13.70;55.20;;;;;;5163373;27;19904;-70
2022/02/16 00:24:42;;;;;;;;;;;13.70;55.20;;;;;;5163363;27;19952;-70
2022/02/16 00:27:08;;;;;;;;;;;13.60;55.20;;;;;;5144707;27;19903;-70
2022/02/16 00:29:34;;;;;;;;;;;13.60;55.20;;;;;;5163155;27;19915;-70
2022/02/16 00:31:59;;;;;;;;;;;13.70;55.20;;;;;;5163328;27;19911;-70
2022/02/16 00:34:25;;;;;;;;;;;13.70;55.80;;;;;;5163169;27;19910;-70
2022/02/16 00:36:50;;;;;;;;;;;13.60;55.20;;;;;;5163184;27;19945;-70
2022/02/16 00:39:16;;;;;;;;;;;13.70;55.20;;;;;;5163079;27;19939;-69
2022/02/16 00:41:41;;;;;;;;;;;13.70;55.20;;;;;;5163075;27;19911;-70
2022/02/16 00:44:07;;;;;;;;;;;13.70;55.20;;;;;;5163022;27;19974;-69
2022/02/16 00:46:33;;;;;;;;;;;13.60;55.10;;;;;;5162900;27;19915;-70
2022/02/16 00:48:58;;;;;;;;;;;13.60;55.20;;;;;;5162819;27;19914;-69
2022/02/16 00:51:24;;;;;;;;;;;13.60;55.20;;;;;;5162843;27;20195;-70
2022/02/16 00:53:49;;;;;;;;;;;13.60;55.30;;;;;;5162798;27;20254;-70
2022/02/16 00:56:15;;;;;;;;;;;13.60;55.20;;;;;;5162734;27;19982;-70
2022/02/16 00:58:41;;;;;;;;;;;13.60;55.20;;;;;;5162714;27;19918;-69
2022/02/16 01:01:07;;;;;;;;;;;13.60;55.20;;;;;;5162657;27;19918;-70
2022/02/16 01:03:32;;;;;;;;;;;13.60;55.20;;;;;;5142993;27;19911;-70
2022/02/16 01:05:58;;;;;;;;;;;13.60;55.10;;;;;;5162486;27;19956;-69
2022/02/16 01:08:23;;;;;;;;;;;13.60;55.20;;;;;;5162048;27;20105;-70
2022/02/16 01:10:49;;;;;;;;;;;13.60;55.10;;;;;;5162398;27;20195;-69
2022/02/16 01:13:15;;;;;;;;;;;13.60;55.20;;;;;;5162390;27;19972;-70
2022/02/16 01:15:40;;;;;;;;;;;13.60;55.20;;;;;;5162359;27;19960;-69
2022/02/16 01:18:06;;;;;;;;;;;13.60;55.10;;;;;;5162335;27;19911;-69
2022/02/16 01:20:31;;;;;;;;;;;13.60;55.20;;;;;;5162247;27;20200;-70
2022/02/16 01:22:57;;;;;;;;;;;13.60;55.20;;;;;;5162287;27;19947;-70
2022/02/16 01:25:23;;;;;;;;;;;13.60;55.20;;;;;;5162206;27;19982;-70
2022/02/16 01:27:48;;;;;;;;;;;13.60;55.20;;;;;;5162057;27;19914;-69
2022/02/16 01:30:14;;;;;;;;;;;13.60;55.20;;;;;;5162069;27;20278;-70
2022/02/16 01:32:39;;;;;;;;;;;13.60;55.20;;;;;;5162053;27;19911;-70
2022/02/16 01:35:05;;;;;;;;;;;13.60;55.20;;;;;;5143326;27;19953;-70
2022/02/16 01:37:31;;;;;;;;;;;13.60;55.10;;;;;;5161999;27;19931;-72
2022/02/16 01:39:57;;;;;;;;;;;13.60;55.10;;;;;;5161887;27;19946;-70
2022/02/16 01:42:22;;;;;;;;;;;13.60;55.10;;;;;;5161848;27;19990;-69
2022/02/16 01:44:48;;;;;;;;;;;13.60;55.20;;;;;;5161869;27;19918;-69
2022/02/16 01:47:14;;;;;;;;;;;13.60;55.10;;;;;;5161843;27;19911;-69
2022/02/16 01:49:40;;;;;;;;;;;13.60;55.20;;;;;;5161755;27;19921;-69
2022/02/16 01:52:06;;;;;;;;;;;13.50;55.20;;;;;;5161715;27;19982;-69
2022/02/16 01:54:33;;;;;;;;;;;13.60;55.10;;;;;;5161717;27;19918;-69
2022/02/16 01:56:58;;;;;;;;;;;13.60;55.00;;;;;;5161718;27;20016;-69
2022/02/16 01:59:24;;;;;;;;;;;13.50;55.10;;;;;;5161639;27;19911;-69
2022/02/16 02:01:51;;;;;;;;;;;13.60;55.20;;;;;;5161630;27;19911;-70
2022/02/16 02:04:17;;;;;;;;;;;13.50;55.10;;;;;;5161553;27;19951;-70
2022/02/16 02:06:43;;;;;;;;;;;13.50;55.20;;;;;;5161497;27;19911;-69
2022/02/16 02:09:09;;;;;;;;;;;13.50;55.20;;;;;;5161305;27;19930;-71
2022/02/16 02:11:35;;;;;;;;;;;13.50;55.10;;;;;;5161098;27;19911;-71
2022/02/16 02:14:02;;;;;;;;;;;13.50;55.20;;;;;;5161689;27;19918;-71
2022/02/16 02:16:28;;;;;;;;;;;13.50;55.10;;;;;;5168214;27;19946;-68
2022/02/16 02:18:54;;;;;;;;;;;13.50;55.10;;;;;;5168343;27;20390;-71
2022/02/16 02:21:20;;;;;;;;;;;13.50;55.20;;;;;;5168345;27;20240;-71
2022/02/16 02:23:46;;;;;;;;;;;13.50;55.10;;;;;;5168282;27;19911;-71
2022/02/16 02:26:12;;;;;;;;;;;13.50;55.20;;;;;;5168306;27;19915;-70
2022/02/16 02:28:38;;;;;;;;;;;13.50;55.20;;;;;;5168181;27;20309;-71
2022/02/16 02:31:04;;;;;;;;;;;13.50;55.20;;;;;;5168276;27;19922;-70
2022/02/16 02:33:29;;;;;;;;;;;13.50;55.20;;;;;;5168237;27;19911;-71
2022/02/16 02:35:55;;;;;;;;;;;13.50;55.10;;;;;;5168174;27;19911;-71
2022/02/16 02:38:21;;;;;;;;;;;13.50;55.20;;;;;;5168206;27;19918;-71
2022/02/16 02:40:53;;;;;;;;;;;13.50;55.10;;;;;;5168130;27;19911;-71
2022/02/16 02:43:20;;;;;;;;;;;13.50;55.20;;;;;;5168123;27;19935;-71
2022/02/16 02:45:46;;;;;;;;;;;13.50;55.20;;;;;;5168070;27;19918;-70
2022/02/16 02:48:11;;;;;;;;;;;13.50;55.20;;;;;;5167994;27;19914;-70
2022/02/16 02:50:37;;;;;;;;;;;13.50;55.20;;;;;;5168037;27;19934;-70
2022/02/16 02:53:02;;;;;;;;;;;13.50;55.20;;;;;;5168085;27;20235;-70
2022/02/16 02:55:28;;;;;;;;;;;13.50;55.20;;;;;;5168057;27;19917;-70
2022/02/16 02:57:54;;;;;;;;;;;13.50;55.20;;;;;;5167958;27;20264;-70
2022/02/16 03:00:19;;;;;;;;;;;13.50;55.20;;;;;;5167954;27;19904;-70
2022/02/16 03:02:45;;;;;;;;;;;13.50;55.20;;;;;;5149319;27;19911;-70
2022/02/16 03:05:11;;;;;;;;;;;13.50;55.20;;;;;;5167907;27;20213;-69
2022/02/16 03:07:37;;;;;;;;;;;13.50;55.20;;;;;;5167823;27;19911;-70
2022/02/16 03:10:03;;;;;;;;;;;13.50;55.20;;;;;;5167706;27;19930;-71
2022/02/16 03:12:29;;;;;;;;;;;13.50;55.20;;;;;;5167853;27;20195;-70
2022/02/16 03:14:54;;;;;;;;;;;13.40;55.10;;;;;;5167856;27;20406;-71
2022/02/16 03:17:20;;;;;;;;;;;13.40;55.20;;;;;;5167794;27;20104;-70
2022/02/16 03:19:46;;;;;;;;;;;13.50;55.20;;;;;;5167783;27;19911;-70
2022/02/16 03:22:11;;;;;;;;;;;13.50;55.10;;;;;;5167766;27;19947;-70
2022/02/16 03:24:37;;;;;;;;;;;13.50;55.20;;;;;;5167722;27;20005;-70
2022/02/16 03:27:03;;;;;;;;;;;13.40;55.20;;;;;;5164439;27;20283;-70
2022/02/16 03:29:28;;;;;;;;;;;13.50;55.20;;;;;;5164418;27;19987;-70
2022/02/16 03:31:54;;;;;;;;;;;13.40;55.10;;;;;;5164419;27;20248;-70
2022/02/16 03:34:19;;;;;;;;;;;13.50;55.10;;;;;;5164342;27;19918;-70
2022/02/16 03:36:45;;;;;;;;;;;13.50;55.10;;;;;;5164247;27;19983;-70
2022/02/16 03:39:11;;;;;;;;;;;13.50;55.20;;;;;;5164286;27;20215;-70
2022/02/16 03:41:37;;;;;;;;;;;13.40;55.20;;;;;;5164175;27;19919;-70
2022/02/16 03:44:02;;;;;;;;;;;13.50;55.20;;;;;;5164146;27;20223;-70
2022/02/16 03:46:28;;;;;;;;;;;13.40;55.20;;;;;;5164166;27;19918;-70
2022/02/16 03:48:54;;;;;;;;;;;13.40;55.10;;;;;;5163917;27;20133;-70
2022/02/16 03:51:19;;;;;;;;;;;13.40;55.20;;;;;;5164079;27;19998;-70
2022/02/16 03:53:45;;;;;;;;;;;13.40;55.10;;;;;;5163925;27;19948;-70
2022/02/16 03:56:10;;;;;;;;;;;13.50;55.20;;;;;;5163938;27;19980;-70
2022/02/16 03:58:36;;;;;;;;;;;13.40;55.20;;;;;;5163686;27;20019;-70
2022/02/16 04:01:02;;;;;;;;;;;13.40;55.10;;;;;;5163777;27;19986;-70
2022/02/16 04:03:28;;;;;;;;;;;13.40;55.10;;;;;;5163778;27;19911;-70
2022/02/16 04:05:53;;;;;;;;;;;13.40;55.10;;;;;;5144947;27;19918;-70
2022/02/16 04:08:19;;;;;;;;;;;13.40;55.10;;;;;;5163512;27;19915;-71
2022/02/16 04:10:44;;;;;;;;;;;13.40;55.20;;;;;;5163643;27;19915;-70
2022/02/16 04:13:10;;;;;;;;;;;13.40;55.20;;;;;;5163647;27;20348;-70
2022/02/16 04:15:36;;;;;;;;;;;13.40;55.20;;;;;;5144826;27;19955;-71
2022/02/16 04:18:02;;;;;;;;;;;13.40;55.10;;;;;;5163507;27;19918;-69
2022/02/16 04:20:27;;;;;;;;;;;13.40;55.10;;;;;;5163477;27;20199;-70
2022/02/16 04:22:53;;;;;;;;;;;13.40;55.20;;;;;;5163368;27;19911;-70
2022/02/16 04:25:19;;;;;;;;;;;13.40;55.20;;;;;;5163352;27;19972;-70
2022/02/16 04:27:46;;;;;;;;;;;13.40;55.20;;;;;;5163135;27;19999;-70
2022/02/16 04:30:12;;;;;;;;;;;13.50;55.20;;;;;;5163243;27;19934;-71
2022/02/16 04:32:38;;;;;;;;;;;13.40;55.10;;;;;;5163224;27;19911;-70
2022/02/16 04:35:05;;;;;;;;;;;13.40;55.10;;;;;;5163162;27;20161;-70
2022/02/16 04:37:31;;;;;;;;;;;13.40;55.10;;;;;;5162923;27;20392;-70
2022/02/16 04:39:57;;;;;;;;;;;13.40;55.20;;;;;;5163058;27;19974;-70
2022/02/16 04:42:23;;;;;;;;;;;13.40;55.20;;;;;;5163023;27;19911;-70
2022/02/16 04:44:48;;;;;;;;;;;13.40;55.20;;;;;;5144366;27;19907;-70
2022/02/16 04:47:14;;;;;;;;;;;13.40;55.20;;;;;;5144247;27;19978;-70
2022/02/16 04:49:40;;;;;;;;;;;13.40;55.10;;;;;;5162746;27;19915;-69
2022/02/16 04:52:05;;;;;;;;;;;13.40;55.20;;;;;;5162833;27;19982;-71
2022/02/16 04:54:31;;;;;;;;;;;13.40;55.10;;;;;;5162713;27;20216;-70
2022/02/16 04:56:57;;;;;;;;;;;13.40;55.20;;;;;;5162643;27;20266;-70
2022/02/16 04:59:22;;;;;;;;;;;13.40;55.20;;;;;;5162629;27;20387;-70
2022/02/16 05:01:48;;;;;;;;;;;13.30;55.20;;;;;;5162664;27;19918;-70
2022/02/16 05:04:13;;;;;;;;;;;13.40;55.20;;;;;;5162472;27;19951;-70
2022/02/16 05:06:42;;;;;;;;;;;13.40;55.10;;;;;;5162493;27;20204;-70
2022/02/16 05:09:08;;;;;;;;;;;13.40;55.20;;;;;;5162182;27;19930;-70
2022/02/16 05:11:34;;;;;;;;;;;13.40;55.10;;;;;;5162427;27;19911;-70
2022/02/16 05:13:59;;;;;;;;;;;13.30;55.10;;;;;;5162393;27;19903;-70
2022/02/16 05:16:25;;;;;;;;;;;13.30;55.20;;;;;;5162320;27;19982;-71
2022/02/16 05:18:51;;;;;;;;;;;13.30;55.20;;;;;;5162290;27;19911;-69
2022/02/16 05:21:18;;;;;;;;;;;13.40;55.20;;;;;;5162294;27;20189;-70
2022/02/16 05:23:43;;;;;;;;;;;13.40;55.20;;;;;;5162152;27;19942;-70
2022/02/16 05:26:09;;;;;;;;;;;13.30;55.10;;;;;;5162104;27;19955;-70
2022/02/16 05:28:35;;;;;;;;;;;13.30;55.20;;;;;;5162016;27;20127;-70
2022/02/16 05:31:00;;;;;;;;;;;13.40;55.10;;;;;;5162096;27;19911;-70
2022/02/16 05:33:26;;;;;;;;;;;13.40;55.20;;;;;;5161961;27;20152;-69
2022/02/16 05:35:52;;;;;;;;;;;13.40;55.20;;;;;;5161962;27;19915;-69
2022/02/16 05:38:18;;;;;;;;;;;13.30;55.10;;;;;;5143375;27;20019;-70
2022/02/16 05:40:43;;;;;;;;;;;13.40;55.20;;;;;;5161932;27;19911;-70
2022/02/16 05:43:10;;;;;;;;;;;13.30;55.10;;;;;;5161813;27;19911;-70
2022/02/16 05:45:36;;;;;;;;;;;13.30;55.20;;;;;;5161807;27;19910;-70
2022/02/16 05:48:02;;;;;;;;;;;13.30;55.20;;;;;;5161720;27;19921;-69
2022/02/16 05:50:28;;;;;;;;;;;13.30;55.20;;;;;;5161204;27;19978;-69
2022/02/16 05:52:53;;;;;;;;;;;13.30;55.20;;;;;;5161674;27;20207;-71
2022/02/16 05:55:19;;;;;;;;;;;13.30;55.20;;;;;;5161654;27;19911;-70
2022/02/16 05:57:45;;;;;;;;;;;13.30;55.20;;;;;;5161609;27;20257;-69
2022/02/16 06:00:11;;;;;;;;;;;13.30;55.20;;;;;;5161650;27;19918;-70
2022/02/16 06:02:36;;;;;;;;;;;13.30;55.20;;;;;;5161652;27;19982;-70
2022/02/16 06:05:02;;;;;;;;;;;13.30;55.10;;;;;;5161536;27;19915;-70
2022/02/16 06:07:28;;;;;;;;;;;13.30;55.20;;;;;;5161552;27;19912;-70
2022/02/16 06:09:53;;;;;;;;;;;13.30;55.10;;;;;;5161211;27;19927;-70
2022/02/16 06:12:19;;;;;;;;;;;13.30;55.10;;;;;;5161431;27;19915;-69
2022/02/16 06:14:44;;;;;;;;;;;13.30;55.10;;;;;;5161416;27;19990;-69
2022/02/16 06:17:10;;;;;;;;;;;13.30;55.10;;;;;;5161457;27;19917;-69
2022/02/16 06:19:36;;;;;;;;;;;13.30;55.10;;;;;;5161413;27;20148;-69
2022/02/16 06:22:01;;;;;;;;;;;13.30;55.10;;;;;;5161395;27;20248;-69
2022/02/16 06:24:27;;;;;;;;;;;13.30;55.80;;;;;;5161380;27;19914;-69
2022/02/16 06:26:53;;;;;;;;;;;13.30;55.20;;;;;;5161313;27;20386;-70
2022/02/16 06:29:18;;;;;;;;;;;13.30;55.20;;;;;;5161288;27;19915;-70
2022/02/16 06:31:44;;;;;;;;;;;13.30;55.10;;;;;;5161271;27;19951;-69
2022/02/16 06:34:10;;;;;;;;;;;13.30;55.80;;;;;;5161270;27;19911;-70
2022/02/16 06:36:35;;;;;;;;;;;13.30;55.20;;;;;;5161176;27;20223;-70
2022/02/16 06:39:01;;;;;;;;;;;13.20;55.10;;;;;;5161299;27;19918;-70
2022/02/16 06:41:28;;;;;;;;;;;13.20;55.10;;;;;;5161148;27;19911;-70
2022/02/16 06:43:54;;;;;;;;;;;13.30;55.20;;;;;;5161203;27;19907;-70
2022/02/16 06:46:19;;;;;;;;;;;13.20;55.10;;;;;;5161133;27;19925;-69
2022/02/16 06:48:45;;;;;;;;;;;13.20;55.20;;;;;;5161067;27;19915;-69
2022/02/16 06:51:10;;;;;;;;;;;13.20;55.10;;;;;;5161159;27;20215;-69
2022/02/16 06:53:36;;;;;;;;;;;13.20;55.10;;;;;;5161041;27;19918;-70
2022/02/16 06:56:02;;;;;;;;;;;13.30;55.20;;;;;;5161049;27;20146;-70
2022/02/16 06:58:29;;;;;;;;;;;13.30;55.10;;;;;;5161087;27;19932;-69
2022/02/16 07:00:54;;;;;;;;;;;13.30;55.10;;;;;;5160926;27;19918;-69
2022/02/16 07:03:20;;;;;;;;;;;13.30;55.00;;;;;;5164548;27;19911;-69
2022/02/16 07:05:46;;;;;;;;;;;13.20;55.00;;;;;;5164969;27;19932;-70
2022/02/16 07:08:11;;;;;;;;;;;13.20;55.10;;;;;;5164905;27;19943;-71
2022/02/16 07:10:37;;;;;;;;;;;13.30;55.10;;;;;;5164674;27;20092;-69
2022/02/16 07:13:02;;;;;;;;;;;13.20;55.00;;;;;;5164817;27;19948;-70
2022/02/16 07:15:29;;;;;;;;;;;13.20;55.10;;;;;;5164801;27;19917;-70
2022/02/16 07:17:54;;;;;;;;;;;13.20;55.10;;;;;;5164734;27;20009;-70
2022/02/16 07:20:20;;;;;;;;;;;13.20;55.00;;;;;;5164689;27;19911;-70
2022/02/16 07:22:47;;;;;;;;;;;13.20;55.10;;;;;;5164568;27;20264;-70
2022/02/16 07:25:13;;;;;;;;;;;13.30;55.00;;;;;;5164790;27;19980;-70
2022/02/16 07:27:39;;;;;;;;;;;13.20;55.00;;;;;;5164461;27;19918;-70
2022/02/16 07:30:06;;;;;;;;;;;13.20;55.00;;;;;;5164511;27;19903;-70
2022/02/16 07:32:32;;;;;;;;;;;13.30;55.10;;;;;;5164436;27;20115;-70
2022/02/16 07:34:58;;;;;;;;;;;13.30;55.00;;;;;;5164436;27;19911;-70
2022/02/16 07:37:23;;;;;;;;;;;13.20;55.00;;;;;;5164301;27;19948;-69
2022/02/16 07:39:49;;;;;;;;;;;13.20;54.90;;;;;;5164275;27;19911;-70
2022/02/16 07:42:14;;;;;;;;;;;13.30;55.10;;;;;;5164251;27;20299;-70
2022/02/16 07:44:41;;;;;;;;;;;13.30;55.10;;;;;;5164456;27;20084;-69
2022/02/16 07:47:09;;;;;;;;;;;13.20;54.90;;;;;;5164141;27;19986;-70
2022/02/16 07:49:35;;;;;;;;;;;13.30;55.00;;;;;;5164016;27;20199;-70
2022/02/16 07:52:02;;;;;;;;;;;13.30;55.00;;;;;;5164127;27;19911;-71
2022/02/16 07:54:28;;;;;;;;;;;13.30;55.00;;;;;;5145485;27;19911;-70
2022/02/16 07:56:54;;;;;;;;;;;13.20;54.90;;;;;;5163966;27;19911;-71
2022/02/16 07:59:20;;;;;;;;;;;13.20;55.00;;;;;;5164002;27;19911;-70
2022/02/16 08:01:45;;;;;;;;;;;13.20;55.00;;;;;;5145197;27;19915;-71
2022/02/16 08:04:17;;;;;;;;;;;13.20;55.00;;;;;;5163985;27;19984;-71
2022/02/16 08:06:47;;;;;;;;;;;13.20;55.00;;;;;;5163834;27;20135;-71
2022/02/16 08:09:13;;;;;;;;;;;13.20;55.00;;;;;;5145009;27;19930;-70
2022/02/16 08:11:41;;;;;;;;;;;13.20;55.00;;;;;;5162999;27;20115;-70
2022/02/16 08:14:07;;;;;;;;;;;13.30;55.00;;;;;;5163151;27;20119;-70
2022/02/16 08:16:33;;;;;;;;;;;13.20;55.00;;;;;;5163648;27;19918;-69
2022/02/16 08:18:59;;;;;;;;;;;13.30;55.10;;;;;;5163585;27;19911;-69
2022/02/16 08:21:25;;;;;;;;;;;13.20;54.90;;;;;;5163517;27;19938;-70
2022/02/16 08:23:50;;;;;;;;;;;13.20;55.00;;;;;;5163530;27;19986;-70
2022/02/16 08:26:16;;;;;;;;;;;13.20;55.10;;;;;;5163463;27;19911;-70
2022/02/16 08:28:42;;;;;;;;;;;13.20;55.00;;;;;;5163315;27;19949;-70
2022/02/16 08:31:07;;;;;;;;;;;13.30;55.10;;;;;;5163386;27;19983;-69
2022/02/16 08:33:33;;;;;;;;;;;13.20;55.10;;;;;;5144580;27;20127;-70
2022/02/16 08:35:59;;;;;;;;;;;13.20;55.10;;;;;;5163512;27;19918;-71
2022/02/16 08:38:24;;;;;;;;;;;13.20;55.10;;;;;;5163152;27;19915;-70
2022/02/16 08:40:50;;;;;;;;;;;13.20;55.10;;;;;;5163133;27;19911;-70
2022/02/16 08:43:15;;;;;;;;;;;13.20;55.20;;;;;;5163115;27;19914;-69
2022/02/16 08:45:42;;;;;;;;;;;13.20;55.10;;;;;;5163119;27;19937;-70
2022/02/16 08:48:08;;;;;;;;;;;13.20;55.00;;;;;;5162994;27;19922;-69
2022/02/16 08:50:33;;;;;;;;;;;13.20;55.00;;;;;;5162926;27;19915;-70
2022/02/16 08:52:59;;;;;;;;;;;13.20;55.10;;;;;;5162925;27;19915;-69
2022/02/16 08:55:24;;;;;;;;;;;13.20;55.10;;;;;;5162892;27;19910;-70
2022/02/16 08:57:50;;;;;;;;;;;13.20;55.10;;;;;;5162854;27;19918;-70
2022/02/16 09:00:16;;;;;;;;;;;13.20;55.00;;;;;;5144115;27;19956;-70
2022/02/16 09:02:41;;;;;;;;;;;13.20;55.10;;;;;;5162783;27;20191;-69
2022/02/16 09:05:07;;;;;;;;;;;13.20;55.10;;;;;;5162661;27;19911;-70
2022/02/16 09:07:33;;;;;;;;;;;13.20;55.10;;;;;;5162608;27;20135;-70
2022/02/16 09:10:00;;;;;;;;;;;13.20;55.00;;;;;;5162434;27;20207;-70
2022/02/16 09:12:26;;;;;;;;;;;13.20;55.60;;;;;;5162582;27;19915;-70
2022/02/16 09:14:51;;;;;;;;;;;13.20;55.00;;;;;;5162515;27;19911;-71
2022/02/16 09:17:17;;;;;;;;;;;13.20;55.00;;;;;;5162466;27;20135;-70
2022/02/16 09:19:43;;;;;;;;;;;13.20;54.90;;;;;;5162392;27;20053;-70
2022/02/16 09:22:12;;;;;;;;;;;13.20;54.90;;;;;;5162423;27;20160;-70
2022/02/16 09:24:39;;;;;;;;;;;13.20;54.90;;;;;;5161504;27;19911;-69
2022/02/16 09:27:05;;;;;;;;;;;13.20;54.90;;;;;;5162306;27;19903;-70
2022/02/16 09:29:30;;;;;;;;;;;13.20;54.90;;;;;;5162232;27;19985;-70
2022/02/16 09:31:56;;;;;;;;;;;13.20;54.90;;;;;;5162158;27;20221;-69
2022/02/16 09:34:22;;;;;;;;;;;13.20;54.90;;;;;;5162148;27;19917;-70
2022/02/16 09:36:47;;;;;;;;;;;13.20;54.80;;;;;;5162143;27;19918;-70
2022/02/16 09:39:13;;;;;;;;;;;13.20;54.90;;;;;;5162077;27;19911;-70
2022/02/16 09:41:39;;;;;;;;;;;13.20;54.90;;;;;;5162053;27;19918;-70
2022/02/16 09:44:04;;;;;;;;;;;13.20;54.80;;;;;;5143377;27;19903;-71
2022/02/16 09:46:30;;;;;;;;;;;13.20;54.90;;;;;;5143377;27;20196;-70
2022/02/16 09:48:56;;;;;;;;;;;13.20;54.90;;;;;;5161849;27;20380;-69
2022/02/16 09:51:22;;;;;;;;;;;13.20;55.00;;;;;;5161958;27;19946;-70
2022/02/16 09:53:48;;;;;;;;;;;13.20;54.90;;;;;;5161857;27;19918;-71
2022/02/16 09:56:13;;;;;;;;;;;13.20;54.80;;;;;;5161754;27;19911;-71
2022/02/16 09:58:39;;;;;;;;;;;13.30;54.80;;;;;;5161824;27;20175;-70
2022/02/16 10:01:12;;;;;;;;;;;13.30;54.80;;;;;;5161801;27;20592;-70
2022/02/16 10:03:38;;;;;;;;;;;13.30;54.80;;;;;;5161814;27;20272;-70
2022/02/16 10:06:04;;;;;;;;;;;13.30;54.80;;;;;;5161671;27;19911;-70
2022/02/16 10:08:40;;;;;;;;;;;13.30;54.80;;;;;;5161711;27;20480;-70
2022/02/16 10:11:06;;;;;;;;;;;13.30;54.90;;;;;;5161680;27;20043;-70
2022/02/16 10:13:33;;;;;;;;;;;13.20;54.90;;;;;;5161550;27;19914;-71
2022/02/16 10:15:59;;;;;;;;;;;13.20;55.00;;;;;;5161553;27;20093;-70
2022/02/16 10:18:24;;;;;;;;;;;13.20;55.00;;;;;;5161561;27;19911;-70
2022/02/16 10:20:50;;;;;;;;;;;13.30;55.10;;;;;;5161851;27;20081;-68
2022/02/16 10:23:16;;;;;;;;;;;13.20;54.90;;;;;;5161501;27;20337;-71
2022/02/16 10:25:49;;;;;;;;;;;13.20;54.90;;;;;;5161521;27;19918;-70
2022/02/16 10:28:19;;;;;;;;;;;13.30;55.00;;;;;;5161363;27;19907;-69
2022/02/16 10:30:56;;;;;;;;;;;13.30;54.80;;;;;;5161436;27;19903;-69
2022/02/16 10:33:23;;;;;;;;;;;13.30;54.80;;;;;;5161395;27;19915;-69
2022/02/16 10:35:56;;;;;;;;;;;13.30;54.90;;;;;;5162531;27;19911;-69
2022/02/16 10:38:22;;;;;;;;;;;13.30;55.00;;;;;;5165645;27;19978;-71
2022/02/16 10:40:59;;;;;;;;;;;13.30;55.00;;;;;;5165612;27;20107;-69
2022/02/16 10:43:37;;;;;;;;;;;13.30;55.00;;;;;;5165544;27;19911;-69
2022/02/16 10:46:16;;;;;;;;;;;13.30;55.00;;;;;;5165498;27;19911;-70
2022/02/16 10:48:41;;;;;;;;;;;13.30;54.90;;;;;;5165493;27;19979;-69
2022/02/16 10:51:14;;;;;;;;;;;13.30;55.10;;;;;;5165422;27;20321;-69
2022/02/16 10:53:39;;;;;;;;;;;13.30;55.10;;;;;;5165488;27;20389;-68
2022/02/16 10:56:07;;;;;;;;;;;13.30;55.10;;;;;;5165330;27;19922;-69
2022/02/16 10:58:33;;;;;;;;;;;13.30;55.10;;;;;;5165485;27;19911;-69
2022/02/16 11:00:59;;;;;;;;;;;13.30;55.10;;;;;;5165145;27;19938;-69
2022/02/16 11:03:30;;;;;;;;;;;13.30;55.10;;;;;;5165137;27;19903;-69
2022/02/16 11:05:57;;;;;;;;;;;13.30;55.10;;;;;;5165255;27;19916;-69
2022/02/16 11:08:26;;;;;;;;;;;13.30;55.20;;;;;;5165030;27;19915;-69
2022/02/16 11:10:52;;;;;;;;;;;13.30;55.20;;;;;;5164922;27;19927;-70
2022/02/16 11:13:21;;;;;;;;;;;13.30;55.30;;;;;;5165071;27;20053;-69
2022/02/16 11:15:48;;;;;;;;;;;13.20;55.30;;;;;;5164952;27;19917;-70
2022/02/16 11:18:15;;;;;;;;;;;13.20;55.50;;;;;;5164911;27;19911;-69
2022/02/16 11:20:40;;;;;;;;;;;13.20;55.50;;;;;;5164865;27;19911;-69
2022/02/16 11:23:06;;;;;;;;;;;13.20;55.60;;;;;;5164816;27;19918;-70
2022/02/16 11:25:36;;;;;;;;;;;13.20;55.60;;;;;;5164721;27;19942;-70
2022/02/16 11:28:04;;;;;;;;;;;13.20;55.60;;;;;;5146055;27;19915;-70
2022/02/16 11:30:34;;;;;;;;;;;13.20;55.60;;;;;;5146049;27;20154;-69
2022/02/16 11:33:17;;;;;;;;;;;13.20;55.60;;;;;;5164602;27;20218;-70
2022/02/16 11:35:50;;;;;;;;;;;13.20;55.60;;;;;;5164547;27;19918;-70
2022/02/16 11:38:19;;;;;;;;;;;13.20;55.60;;;;;;5164745;27;19918;-69
2022/02/16 11:40:50;;;;;;;;;;;13.20;55.70;;;;;;5164541;27;19945;-69
2022/02/16 11:43:22;;;;;;;;;;;13.20;55.80;;;;;;5164447;27;20115;-70
2022/02/16 11:46:00;;;;;;;;;;;13.30;55.70;;;;;;5164421;27;19934;-69
2022/02/16 11:48:41;;;;;;;;;;;13.30;55.80;;;;;;5163382;27;19922;-69
2022/02/16 11:51:22;;;;;;;;;;;13.20;55.70;;;;;;5164257;27;19985;-68
2022/02/16 11:53:48;;;;;;;;;;;13.20;55.90;;;;;;5164290;27;20145;-68
2022/02/16 11:56:15;;;;;;;;;;;13.20;55.90;;;;;;5164182;27;19959;-71
2022/02/16 11:58:41;;;;;;;;;;;13.30;55.90;;;;;;5164094;27;19952;-71
2022/02/16 12:01:14;;;;;;;;;;;13.20;56.00;;;;;;5164068;27;19946;-69
2022/02/16 12:03:49;;;;;;;;;;;13.20;55.90;;;;;;5164100;27;19909;-70
2022/02/16 12:06:16;;;;;;;;;;;13.30;55.90;;;;;;5164049;27;20245;-70
2022/02/16 12:08:45;;;;;;;;;;;13.30;56.00;;;;;;5163701;27;20317;-70
2022/02/16 12:11:19;;;;;;;;;;;13.30;56.10;;;;;;5163943;27;20229;-70
2022/02/16 12:13:46;;;;;;;;;;;13.30;56.10;;;;;;5163759;27;19957;-69
2022/02/16 12:16:14;;;;;;;;;;;13.30;56.00;;;;;;5163770;27;19918;-70
2022/02/16 12:18:41;;;;;;;;;;;13.30;56.00;;;;;;5163756;27;20058;-70
2022/02/16 12:21:07;;;;;;;;;;;13.30;56.10;;;;;;5163553;27;19911;-70
2022/02/16 12:23:39;;;;;;;;;;;13.30;56.10;;;;;;5163655;27;20222;-70
2022/02/16 12:26:05;;;;;;;;;;;13.30;56.10;;;;;;5163607;27;19906;-70
2022/02/16 12:28:44;;;;;;;;;;;13.30;56.10;;;;;;5163523;27;20284;-71
2022/02/16 12:31:13;;;;;;;;;;;13.40;56.20;;;;;;5163544;27;20301;-70
2022/02/16 12:33:39;;;;;;;;;;;13.40;56.10;;;;;;5163443;27;19982;-70
2022/02/16 12:36:06;;;;;;;;;;;13.40;56.10;;;;;;5163318;27;19903;-70
2022/02/16 12:38:33;;;;;;;;;;;13.40;56.10;;;;;;5163345;27;20144;-69
2022/02/16 12:41:06;;;;;;;;;;;13.40;56.10;;;;;;5163373;27;19911;-70
2022/02/16 12:43:31;;;;;;;;;;;13.40;56.10;;;;;;5144635;27;19911;-69
2022/02/16 12:45:57;;;;;;;;;;;13.40;56.00;;;;;;5163182;27;19949;-69
2022/02/16 12:48:22;;;;;;;;;;;13.40;56.00;;;;;;5163042;27;19954;-69
2022/02/16 12:50:48;;;;;;;;;;;13.40;56.00;;;;;;5163097;27;19919;-68
2022/02/16 12:53:16;;;;;;;;;;;13.40;56.00;;;;;;5163014;27;19911;-69
2022/02/16 12:55:42;;;;;;;;;;;13.40;56.00;;;;;;5163080;27;19911;-69
2022/02/16 12:58:08;;;;;;;;;;;13.50;56.00;;;;;;5162886;27;19918;-69
2022/02/16 13:00:49;;;;;;;;;;;13.50;56.10;;;;;;5162837;27;19911;-70
2022/02/16 13:03:17;;;;;;;;;;;13.50;56.10;;;;;;5162810;27;19911;-70
2022/02/16 13:05:45;;;;;;;;;;;13.50;56.10;;;;;;5162764;27;19911;-70
2022/02/16 13:08:11;;;;;;;;;;;13.50;56.10;;;;;;5162721;27;19954;-69
2022/02/16 13:10:37;;;;;;;;;;;13.50;56.00;;;;;;5162594;27;19923;-69
2022/02/16 13:13:21;;;;;;;;;;;13.50;56.10;;;;;;5162655;27;20264;-69
2022/02/16 13:15:48;;;;;;;;;;;13.50;56.10;;;;;;5162593;27;20207;-70
2022/02/16 13:18:14;;;;;;;;;;;13.50;56.10;;;;;;5162564;27;20286;-70
2022/02/16 13:20:42;;;;;;;;;;;13.50;56.00;;;;;;5143969;27;19982;-69
2022/02/16 13:23:17;;;;;;;;;;;13.50;56.00;;;;;;5162494;27;19917;-71
2022/02/16 13:25:44;;;;;;;;;;;13.60;56.00;;;;;;5162390;27;19918;-71
2022/02/16 13:28:16;;;;;;;;;;;13.60;56.00;;;;;;5162315;27;19903;-68
2022/02/16 13:30:42;;;;;;;;;;;13.60;56.00;;;;;;5162346;27;19911;-71
2022/02/16 13:33:14;;;;;;;;;;;13.60;55.90;;;;;;5162292;27;19911;-70
2022/02/16 13:35:42;;;;;;;;;;;13.60;56.00;;;;;;5162215;27;19947;-69
2022/02/16 13:38:08;;;;;;;;;;;13.60;56.00;;;;;;5162164;27;19915;-70
2022/02/16 13:40:47;;;;;;;;;;;13.60;56.00;;;;;;5162229;27;19990;-70
2022/02/16 13:43:13;;;;;;;;;;;13.60;55.90;;;;;;5162058;27;19978;-70
2022/02/16 13:45:39;;;;;;;;;;;13.70;56.10;;;;;;5162081;27;19911;-70
2022/02/16 13:48:06;;;;;;;;;;;13.70;56.00;;;;;;5161977;27;19974;-70
2022/02/16 13:50:34;;;;;;;;;;;13.70;56.00;;;;;;5162034;27;19915;-70
2022/02/16 13:53:01;;;;;;;;;;;13.70;56.00;;;;;;5161945;27;20104;-70
2022/02/16 13:55:27;;;;;;;;;;;13.70;56.00;;;;;;5161791;27;20204;-70
2022/02/16 13:58:04;;;;;;;;;;;13.70;55.90;;;;;;5161842;27;19904;-70
2022/02/16 14:00:29;;;;;;;;;;;13.70;56.00;;;;;;5161841;27;19903;-69
2022/02/16 14:03:09;;;;;;;;;;;13.70;55.90;;;;;;5143119;27;19922;-69
2022/02/16 14:05:35;;;;;;;;;;;13.70;55.90;;;;;;5161769;27;19974;-69
2022/02/16 14:08:02;;;;;;;;;;;13.80;55.90;;;;;;5161626;27;19911;-70
2022/02/16 14:10:32;;;;;;;;;;;13.80;55.90;;;;;;5160795;27;20003;-70
2022/02/16 14:12:58;;;;;;;;;;;13.80;55.90;;;;;;5161750;27;19911;-70